createdAt,value
2023-01-09T00:01:23.322Z,100.00
2023-01-09T00:03:49.843Z,100.00
2023-01-09T00:06:16.271Z,100.00
2023-01-09T00:08:42.637Z,100.00
2023-01-09T00:11:09.034Z,100.00
2023-01-09T00:13:35.654Z,100.00
2023-01-09T00:16:02.017Z,100.00
2023-01-09T00:18:28.589Z,100.00
2023-01-09T00:20:55.013Z,100.00
2023-01-09T00:23:21.603Z,100.00
2023-01-09T00:25:47.956Z,100.00
2023-01-09T00:28:14.558Z,100.00
2023-01-09T00:30:40.931Z,100.00
2023-01-09T00:33:07.358Z,100.00
2023-01-09T00:35:33.813Z,100.00
2023-01-09T00:38:00.413Z,100.00
2023-01-09T00:40:26.801Z,100.00
2023-01-09T00:42:55.213Z,100.00
2023-01-09T00:45:28.595Z,100.00
2023-01-09T00:47:57.039Z,100.00
2023-01-09T00:50:24.731Z,100.00
2023-01-09T00:52:51.483Z,100.00
2023-01-09T00:55:17.900Z,100.00
2023-01-09T00:57:44.317Z,100.00
2023-01-09T01:00:11.305Z,100.00
2023-01-09T01:02:37.885Z,100.00
2023-01-09T01:05:23.331Z,100.00
2023-01-09T01:07:49.797Z,100.00
2023-01-09T01:10:20.330Z,100.00
2023-01-09T01:12:47.360Z,100.00
2023-01-09T01:15:14.023Z,100.00
2023-01-09T01:17:40.934Z,100.00
2023-01-09T01:20:09.977Z,100.00
2023-01-09T01:22:36.529Z,100.00
2023-01-09T01:25:04.254Z,100.00
2023-01-09T01:27:30.925Z,100.00
2023-01-09T01:29:57.260Z,100.00
2023-01-09T01:32:24.027Z,100.00
2023-01-09T01:34:50.371Z,100.00
2023-01-09T01:37:16.962Z,100.00
2023-01-09T01:39:43.330Z,100.00
2023-01-09T01:42:12.936Z,100.00
2023-01-09T01:44:58.343Z,100.00
2023-01-09T01:47:45.009Z,100.00
2023-01-09T01:50:25.891Z,100.00
2023-01-09T01:53:14.219Z,100.00
2023-01-09T01:55:45.705Z,100.00
2023-01-09T01:58:14.079Z,100.00
2023-01-09T02:00:42.932Z,100.00
2023-01-09T02:03:09.516Z,100.00
2023-01-09T02:05:36.775Z,100.00
2023-01-09T02:08:03.626Z,100.00
2023-01-09T02:10:30.435Z,100.00
2023-01-09T02:12:56.798Z,100.00
2023-01-09T02:15:23.223Z,100.00
2023-01-09T02:18:08.493Z,100.00
2023-01-09T02:20:43.847Z,100.00
2023-01-09T02:23:44.138Z,100.00
2023-01-09T02:26:34.885Z,100.00
2023-01-09T02:29:30.789Z,100.00
2023-01-09T02:32:02.924Z,100.00
2023-01-09T02:34:36.037Z,100.00
2023-01-09T02:37:02.439Z,100.00
2023-01-09T02:39:52.262Z,100.00
2023-01-09T02:42:23.233Z,100.00
2023-01-09T02:44:50.007Z,100.00
2023-01-09T02:47:16.367Z,100.00
2023-01-09T02:49:52.360Z,100.00
2023-01-09T02:52:21.684Z,100.00
2023-01-09T02:54:51.123Z,100.00
2023-01-09T02:57:24.810Z,100.00
2023-01-09T03:00:07.028Z,100.00
2023-01-09T03:02:53.538Z,100.00
2023-01-09T03:05:30.472Z,100.00
2023-01-09T03:08:01.349Z,100.00
2023-01-09T03:10:27.693Z,100.00
2023-01-09T03:12:54.555Z,100.00
2023-01-09T03:15:22.504Z,100.00
2023-01-09T03:17:48.873Z,100.00
2023-01-09T03:20:17.980Z,100.00
2023-01-09T03:22:58.002Z,100.00
2023-01-09T03:25:24.675Z,100.00
2023-01-09T03:27:54.339Z,100.00
2023-01-09T03:30:20.699Z,100.00
2023-01-09T03:32:47.070Z,100.00
2023-01-09T03:35:13.857Z,100.00
2023-01-09T03:37:40.217Z,100.00
2023-01-09T03:40:07.466Z,100.00
2023-01-09T03:42:33.834Z,100.00
2023-01-09T03:45:00.207Z,100.00
2023-01-09T03:47:26.838Z,100.00
2023-01-09T03:49:53.206Z,100.00
2023-01-09T03:52:19.549Z,100.00
2023-01-09T03:54:45.905Z,100.00
2023-01-09T03:57:12.255Z,100.00
2023-01-09T03:59:39.259Z,100.00
2023-01-09T04:02:05.926Z,100.00
2023-01-09T04:04:32.619Z,100.00
2023-01-09T04:06:58.962Z,100.00
2023-01-09T04:09:25.499Z,100.00
2023-01-09T04:11:51.888Z,100.00
2023-01-09T04:14:18.317Z,100.00
2023-01-09T04:16:44.694Z,100.00
2023-01-09T04:19:11.065Z,100.00
2023-01-09T04:21:37.429Z,100.00
2023-01-09T04:24:04.109Z,100.00
2023-01-09T04:26:30.708Z,100.00
2023-01-09T04:28:57.260Z,100.00
2023-01-09T04:31:23.693Z,100.00
2023-01-09T04:33:50.305Z,100.00
2023-01-09T04:36:16.659Z,100.00
2023-01-09T04:38:43.251Z,100.00
2023-01-09T04:41:09.627Z,100.00
2023-01-09T04:43:36.017Z,100.00
2023-01-09T04:46:02.678Z,100.00
2023-01-09T04:48:29.076Z,100.00
2023-01-09T04:50:55.414Z,100.00
2023-01-09T04:53:21.858Z,100.00
2023-01-09T04:55:48.204Z,100.00
2023-01-09T04:58:14.565Z,100.00
2023-01-09T05:00:40.958Z,100.00
2023-01-09T05:03:07.367Z,100.00
2023-01-09T05:05:33.721Z,100.00
2023-01-09T05:08:02.998Z,100.00
2023-01-09T05:10:29.352Z,100.00
2023-01-09T05:12:55.731Z,100.00
2023-01-09T05:15:22.102Z,100.00
2023-01-09T05:17:48.523Z,100.00
2023-01-09T05:20:15.101Z,100.00
2023-01-09T05:22:41.450Z,100.00
2023-01-09T05:25:08.222Z,100.00
2023-01-09T05:27:34.581Z,100.00
2023-01-09T05:30:01.004Z,100.00
2023-01-09T05:32:27.401Z,100.00
2023-01-09T05:34:53.817Z,100.00
2023-01-09T05:37:20.246Z,100.00
2023-01-09T05:39:46.596Z,100.00
2023-01-09T05:42:12.931Z,100.00
2023-01-09T05:44:39.540Z,100.00
2023-01-09T05:47:05.899Z,100.00
2023-01-09T05:49:32.373Z,100.00
2023-01-09T05:51:58.747Z,100.00
2023-01-09T05:54:25.236Z,100.00
2023-01-09T05:56:51.649Z,100.00
2023-01-09T05:59:18.200Z,100.00
2023-01-09T06:01:44.637Z,100.00
2023-01-09T06:04:11.062Z,100.00
2023-01-09T06:06:37.492Z,100.00
2023-01-09T06:09:03.904Z,100.00
2023-01-09T06:11:30.316Z,100.00
2023-01-09T06:13:56.707Z,100.00
2023-01-09T06:16:23.137Z,100.00
2023-01-09T06:18:50.395Z,100.00
2023-01-09T06:21:16.757Z,100.00
2023-01-09T06:23:43.119Z,100.00
2023-01-09T06:26:09.461Z,100.00
2023-01-09T06:28:36.059Z,100.00
2023-01-09T06:31:02.496Z,100.00
2023-01-09T06:33:29.011Z,100.00
2023-01-09T06:35:55.368Z,100.00
2023-01-09T06:38:21.743Z,100.00
2023-01-09T06:40:48.607Z,100.00
2023-01-09T06:43:15.173Z,100.00
2023-01-09T06:45:44.561Z,100.00
2023-01-09T06:48:11.400Z,100.00
2023-01-09T06:50:37.807Z,100.00
2023-01-09T06:53:04.182Z,100.00
2023-01-09T06:55:30.541Z,100.00
2023-01-09T06:57:57.169Z,100.00
2023-01-09T07:00:23.625Z,100.00
2023-01-09T07:02:49.999Z,100.00
2023-01-09T07:05:16.654Z,100.00
2023-01-09T07:07:43.113Z,100.00
2023-01-09T07:10:09.950Z,100.00
2023-01-09T07:12:36.519Z,100.00
2023-01-09T07:15:03.084Z,100.00
2023-01-09T07:17:29.450Z,100.00
2023-01-09T07:19:56.078Z,100.00
2023-01-09T07:22:22.441Z,100.00
2023-01-09T07:24:48.888Z,100.00
2023-01-09T07:27:15.471Z,100.00
2023-01-09T07:29:41.863Z,100.00
2023-01-09T07:32:08.279Z,100.00
2023-01-09T07:34:34.885Z,100.00
2023-01-09T07:37:01.243Z,100.00
2023-01-09T07:39:27.638Z,100.00
2023-01-09T07:41:54.219Z,100.00
2023-01-09T07:44:20.567Z,100.00
2023-01-09T07:46:46.912Z,100.00
2023-01-09T07:49:13.275Z,100.00
2023-01-09T07:51:42.925Z,100.00
2023-01-09T07:54:10.037Z,100.00
2023-01-09T07:56:36.607Z,100.00
2023-01-09T07:59:02.954Z,100.00
2023-01-09T08:01:29.388Z,100.00
2023-01-09T08:03:56.081Z,100.00
2023-01-09T08:06:22.433Z,100.00
2023-01-09T08:08:49.116Z,100.00
2023-01-09T08:11:15.755Z,100.00
2023-01-09T08:13:42.102Z,100.00
2023-01-09T08:16:08.669Z,100.00
2023-01-09T08:18:35.182Z,100.00
2023-01-09T08:21:01.573Z,100.00
2023-01-09T08:23:27.980Z,100.00
2023-01-09T08:25:54.611Z,100.00
2023-01-09T08:28:20.975Z,100.00
2023-01-09T08:30:47.552Z,100.00
2023-01-09T08:33:14.291Z,100.00
2023-01-09T08:35:40.644Z,100.00
2023-01-09T08:38:07.055Z,100.00
2023-01-09T08:40:33.620Z,100.00
2023-01-09T08:43:18.568Z,100.00
2023-01-09T08:46:03.690Z,100.00
2023-01-09T08:48:30.043Z,100.00
2023-01-09T08:50:56.452Z,100.00
2023-01-09T08:53:22.875Z,100.00
2023-01-09T08:55:49.564Z,100.00
2023-01-09T08:58:15.934Z,100.00
2023-01-09T09:00:42.637Z,100.00
2023-01-09T09:03:09.232Z,100.00
2023-01-09T09:05:35.875Z,100.00
2023-01-09T09:08:03.542Z,100.00
2023-01-09T09:10:30.420Z,100.00
2023-01-09T09:12:57.824Z,100.00
2023-01-09T09:15:25.045Z,100.00
2023-01-09T09:17:54.379Z,100.00
2023-01-09T09:20:24.906Z,100.00
2023-01-09T09:22:51.321Z,100.00
2023-01-09T09:25:17.835Z,100.00
2023-01-09T09:27:44.589Z,100.00
2023-01-09T09:30:11.649Z,100.00
2023-01-09T09:32:38.656Z,100.00
2023-01-09T09:35:05.483Z,100.00
2023-01-09T09:37:31.926Z,100.00
2023-01-09T09:40:01.450Z,100.00
2023-01-09T09:43:01.173Z,100.00
2023-01-09T09:45:47.727Z,100.00
2023-01-09T09:48:32.559Z,100.00
2023-01-09T09:51:05.050Z,100.00
2023-01-09T09:54:13.772Z,100.00
2023-01-09T09:56:48.398Z,100.00
2023-01-09T09:59:20.636Z,100.00
2023-01-09T10:02:02.631Z,100.00
2023-01-09T10:04:32.044Z,100.00
2023-01-09T10:07:00.643Z,100.00
2023-01-09T10:09:49.282Z,100.00
2023-01-09T10:12:25.247Z,100.00
2023-01-09T10:14:51.821Z,100.00
2023-01-09T10:17:50.956Z,100.00
2023-01-09T10:20:49.193Z,100.00
2023-01-09T10:23:37.741Z,100.00
2023-01-09T10:26:46.349Z,100.00
2023-01-09T10:29:25.865Z,100.00
2023-01-09T10:32:24.604Z,100.00
2023-01-09T10:35:04.921Z,100.00
2023-01-09T10:37:37.029Z,100.00
2023-01-09T10:40:14.334Z,100.00
2023-01-09T10:42:44.754Z,100.00
2023-01-09T10:45:37.109Z,100.00
2023-01-09T10:48:06.474Z,100.00
2023-01-09T10:50:37.643Z,100.00
2023-01-09T10:53:34.648Z,100.00
2023-01-09T10:56:04.825Z,100.00
2023-01-09T10:58:31.298Z,100.00
2023-01-09T11:00:59.464Z,100.00
2023-01-09T11:03:26.132Z,100.00
2023-01-09T11:05:55.286Z,100.00
2023-01-09T11:08:42.655Z,100.00
2023-01-09T11:11:09.668Z,100.00
2023-01-09T11:13:38.244Z,100.00
2023-01-09T11:16:20.233Z,100.00
2023-01-09T11:18:53.782Z,100.00
2023-01-09T11:21:26.425Z,100.00
2023-01-09T11:23:53.552Z,100.00
2023-01-09T11:26:24.860Z,100.00
2023-01-09T11:29:07.768Z,100.00
2023-01-09T11:31:35.309Z,100.00
2023-01-09T11:34:01.751Z,100.00
2023-01-09T11:36:28.206Z,100.00
2023-01-09T11:38:56.038Z,100.00
2023-01-09T11:41:26.864Z,100.00
2023-01-09T11:43:57.324Z,100.00
2023-01-09T11:46:43.820Z,100.00
2023-01-09T11:49:18.018Z,100.00
2023-01-09T11:51:44.498Z,100.00
2023-01-09T11:54:30.693Z,100.00
2023-01-09T11:56:57.073Z,100.00
2023-01-09T11:59:26.647Z,100.00
2023-01-09T12:01:56.471Z,100.00
2023-01-09T12:04:31.193Z,100.00
2023-01-09T12:07:21.842Z,100.00
2023-01-09T12:10:26.956Z,100.00
2023-01-09T12:13:26.808Z,100.00
2023-01-09T12:15:59.286Z,100.00
2023-01-09T12:18:37.759Z,100.00
2023-01-09T12:21:04.098Z,100.00
2023-01-09T12:23:55.568Z,100.00
2023-01-09T12:26:30.927Z,100.00
2023-01-09T12:29:16.322Z,100.00
2023-01-09T12:32:00.933Z,100.00
2023-01-09T12:35:03.074Z,100.00
2023-01-09T12:37:57.652Z,100.00
2023-01-09T12:41:07.005Z,100.00
2023-01-09T12:43:56.797Z,100.00
2023-01-09T12:46:24.658Z,100.00
2023-01-09T12:49:09.879Z,100.00
2023-01-09T12:51:55.274Z,100.00
2023-01-09T12:54:31.480Z,100.00
2023-01-09T12:57:01.291Z,100.00
2023-01-09T12:59:43.266Z,100.00
2023-01-09T13:02:32.529Z,100.00
2023-01-09T13:05:01.173Z,100.00
2023-01-09T13:07:48.801Z,100.00
2023-01-09T13:10:27.817Z,100.00
2023-01-09T13:12:54.217Z,100.00
2023-01-09T13:15:45.320Z,100.00
2023-01-09T13:18:24.564Z,100.00
2023-01-09T13:20:53.242Z,100.00
2023-01-09T13:23:45.122Z,100.00
2023-01-09T13:26:24.956Z,100.00
2023-01-09T13:28:54.710Z,100.00
2023-01-09T13:31:37.147Z,100.00
2023-01-09T13:34:04.589Z,100.00
2023-01-09T13:36:36.658Z,100.00
2023-01-09T13:39:03.337Z,100.00
2023-01-09T13:41:48.635Z,100.00
2023-01-09T13:44:18.116Z,100.00
2023-01-09T13:46:46.358Z,100.00
2023-01-09T13:49:35.231Z,100.00
2023-01-09T13:52:02.579Z,100.00
2023-01-09T13:54:58.267Z,100.00
2023-01-09T13:57:28.846Z,100.00
2023-01-09T13:59:59.527Z,100.00
2023-01-09T14:02:35.266Z,100.00
2023-01-09T14:05:03.443Z,100.00
2023-01-09T14:07:30.659Z,100.00
2023-01-09T14:09:59.204Z,100.00
2023-01-09T14:12:26.909Z,100.00
2023-01-09T14:14:54.567Z,100.00
2023-01-09T14:17:28.819Z,100.00
2023-01-09T14:19:57.203Z,100.00
2023-01-09T14:22:28.604Z,99.87
2023-01-09T14:24:56.582Z,99.58
2023-01-09T14:27:54.184Z,100.00
2023-01-09T14:30:28.472Z,100.00
2023-01-09T14:33:05.072Z,100.00
2023-01-09T14:35:55.800Z,100.00
2023-01-09T14:38:28.397Z,99.91
2023-01-09T14:40:59.414Z,99.35
2023-01-09T14:43:44.734Z,98.31
2023-01-09T14:46:14.587Z,99.15
2023-01-09T14:48:46.051Z,98.81
2023-01-09T14:51:15.077Z,96.71
2023-01-09T14:53:41.456Z,99.68
2023-01-09T14:56:27.549Z,80.72
2023-01-09T14:59:21.964Z,79.88
2023-01-09T15:01:52.615Z,80.41
2023-01-09T15:04:26.303Z,79.28
2023-01-09T15:06:52.736Z,79.79
2023-01-09T15:09:28.059Z,77.70
2023-01-09T15:12:01.944Z,76.64
2023-01-09T15:14:38.031Z,76.02
2023-01-09T15:17:04.628Z,75.46
2023-01-09T15:19:32.082Z,75.99
2023-01-09T15:21:59.496Z,75.38
2023-01-09T15:24:29.465Z,75.51
2023-01-09T15:27:01.219Z,74.28
2023-01-09T15:29:28.596Z,73.96
2023-01-09T15:32:03.097Z,75.32
2023-01-09T15:34:29.570Z,73.76
2023-01-09T15:36:56.126Z,74.24
2023-01-09T15:39:44.889Z,73.63
2023-01-09T15:42:47.104Z,73.87
2023-01-09T15:45:23.078Z,73.27
2023-01-09T15:47:49.447Z,72.64
2023-01-09T15:50:16.755Z,71.77
2023-01-09T15:52:43.146Z,73.26
2023-01-09T15:55:35.058Z,71.64
2023-01-09T15:58:02.434Z,72.18
2023-01-09T16:00:28.952Z,71.66
2023-01-09T16:03:10.881Z,70.05
2023-01-09T16:05:44.740Z,69.81
2023-01-09T16:08:24.699Z,69.08
2023-01-09T16:10:53.142Z,67.40
2023-01-09T16:13:21.315Z,60.44
2023-01-09T16:15:47.714Z,57.15
2023-01-09T16:18:15.260Z,57.64
2023-01-09T16:20:41.998Z,56.48
2023-01-09T16:23:28.960Z,59.04
2023-01-09T16:26:14.408Z,58.78
2023-01-09T16:28:42.320Z,58.07
2023-01-09T16:31:25.218Z,57.97
2023-01-09T16:34:04.437Z,56.02
2023-01-09T16:36:30.920Z,56.28
2023-01-09T16:38:57.887Z,56.00
2023-01-09T16:41:42.961Z,54.78
2023-01-09T16:44:09.856Z,54.79
2023-01-09T16:46:40.481Z,54.09
2023-01-09T16:49:23.513Z,54.17
2023-01-09T16:51:50.765Z,53.81
2023-01-09T16:54:17.247Z,54.42
2023-01-09T16:56:44.840Z,53.74
2023-01-09T16:59:15.151Z,53.75
2023-01-09T17:01:41.693Z,55.08
2023-01-09T17:04:14.907Z,54.34
2023-01-09T17:06:41.727Z,54.24
2023-01-09T17:09:12.570Z,54.89
2023-01-09T17:11:39.843Z,53.67
2023-01-09T17:14:06.626Z,52.34
2023-01-09T17:16:36.666Z,53.07
2023-01-09T17:19:03.647Z,53.12
2023-01-09T17:21:30.686Z,53.66
2023-01-09T17:24:16.266Z,54.39
2023-01-09T17:27:02.089Z,54.91
2023-01-09T17:29:28.955Z,60.13
2023-01-09T17:31:56.022Z,67.70
2023-01-09T17:34:22.461Z,86.35
2023-01-09T17:36:48.839Z,98.36
2023-01-09T17:39:16.123Z,100.00
2023-01-09T17:41:42.689Z,100.00
2023-01-09T17:44:10.256Z,100.00
2023-01-09T17:46:38.147Z,100.00
2023-01-09T17:49:06.902Z,100.00
2023-01-09T17:51:33.366Z,100.00
2023-01-09T17:53:59.826Z,100.00
2023-01-09T17:56:30.354Z,100.00
2023-01-09T17:58:56.790Z,100.00
2023-01-09T18:01:23.242Z,100.00
2023-01-09T18:03:50.506Z,100.00
2023-01-09T18:06:18.617Z,100.00
2023-01-09T18:08:45.054Z,100.00
2023-01-09T18:11:14.026Z,100.00
2023-01-09T18:13:41.153Z,100.00
2023-01-09T18:16:16.256Z,100.00
2023-01-09T18:18:42.863Z,100.00
2023-01-09T18:21:09.436Z,100.00
2023-01-09T18:23:35.982Z,100.00
2023-01-09T18:26:06.951Z,100.00
2023-01-09T18:28:36.011Z,100.00
2023-01-09T18:31:02.516Z,100.00
2023-01-09T18:33:28.905Z,100.00
2023-01-09T18:35:55.671Z,100.00
2023-01-09T18:38:22.020Z,100.00
2023-01-09T18:40:48.491Z,100.00
2023-01-09T18:43:15.466Z,100.00
2023-01-09T18:45:41.881Z,100.00
2023-01-09T18:48:09.451Z,100.00
2023-01-09T18:50:35.825Z,100.00
2023-01-09T18:53:02.195Z,100.00
2023-01-09T18:55:28.838Z,100.00
2023-01-09T18:57:55.824Z,100.00
2023-01-09T19:00:22.398Z,100.00
2023-01-09T19:02:48.790Z,100.00
2023-01-09T19:05:15.982Z,100.00
2023-01-09T19:07:42.340Z,100.00
2023-01-09T19:10:09.667Z,100.00
2023-01-09T19:12:36.033Z,100.00
2023-01-09T19:15:02.404Z,100.00
2023-01-09T19:17:28.786Z,100.00
2023-01-09T19:19:55.159Z,100.00
2023-01-09T19:22:21.522Z,100.00
2023-01-09T19:24:47.920Z,100.00
2023-01-09T19:27:14.284Z,100.00
2023-01-09T19:29:40.625Z,100.00
2023-01-09T19:32:08.481Z,100.00
2023-01-09T19:34:35.384Z,100.00
2023-01-09T19:37:01.824Z,100.00
2023-01-09T19:39:28.317Z,100.00
2023-01-09T19:41:55.956Z,100.00
2023-01-09T19:44:22.377Z,100.00
2023-01-09T19:46:48.809Z,100.00
2023-01-09T19:49:15.166Z,100.00
2023-01-09T19:51:42.370Z,100.00
2023-01-09T19:54:09.886Z,100.00
2023-01-09T19:56:37.951Z,100.00
2023-01-09T19:59:04.646Z,100.00
2023-01-09T20:01:32.570Z,100.00
2023-01-09T20:04:04.784Z,100.00
2023-01-09T20:06:31.403Z,100.00
2023-01-09T20:08:59.019Z,100.00
2023-01-09T20:11:27.317Z,100.00
2023-01-09T20:13:55.375Z,100.00
2023-01-09T20:16:23.496Z,100.00
2023-01-09T20:18:49.917Z,100.00
2023-01-09T20:23:50.055Z,100.00
2023-01-09T20:26:17.100Z,100.00
2023-01-09T20:28:44.240Z,100.00
2023-01-09T20:31:11.502Z,100.00
2023-01-09T20:33:37.926Z,100.00
2023-01-09T20:36:05.192Z,100.00
2023-01-09T20:38:32.197Z,100.00
2023-01-09T20:40:58.617Z,100.00
2023-01-09T20:43:25.067Z,100.00
2023-01-09T20:45:51.413Z,100.00
2023-01-09T20:48:17.839Z,100.00
2023-01-09T20:50:44.278Z,100.00
2023-01-09T20:53:10.683Z,100.00
2023-01-09T20:55:37.082Z,100.00
2023-01-09T20:58:03.438Z,100.00
2023-01-09T21:00:32.081Z,100.00
2023-01-09T21:02:59.263Z,100.00
2023-01-09T21:05:25.756Z,100.00
2023-01-09T21:07:52.254Z,100.00
2023-01-09T21:10:18.756Z,100.00
2023-01-09T21:12:45.105Z,100.00
2023-01-09T21:15:15.202Z,100.00
2023-01-09T21:17:41.579Z,100.00
2023-01-09T21:20:10.521Z,100.00
2023-01-09T21:22:37.074Z,100.00
2023-01-09T21:25:03.875Z,100.00
2023-01-09T21:27:35.386Z,100.00
2023-01-09T21:30:02.303Z,100.00
2023-01-09T21:32:29.281Z,100.00
2023-01-09T21:34:55.653Z,100.00
2023-01-09T21:37:22.101Z,100.00
2023-01-09T21:39:48.451Z,100.00
2023-01-09T21:42:33.518Z,100.00
2023-01-09T21:45:18.195Z,100.00
2023-01-09T21:47:44.568Z,100.00
2023-01-09T21:50:10.908Z,100.00
2023-01-09T21:52:37.492Z,100.00
2023-01-09T21:55:04.117Z,100.00
2023-01-09T21:57:30.483Z,100.00
2023-01-09T21:59:56.833Z,100.00
2023-01-09T22:02:23.281Z,100.00
2023-01-09T22:04:49.630Z,100.00
2023-01-09T22:07:16.345Z,100.00
2023-01-09T22:09:44.332Z,100.00
2023-01-09T22:12:11.851Z,100.00
2023-01-09T22:14:39.616Z,100.00
2023-01-09T22:17:06.123Z,100.00
2023-01-09T22:19:32.625Z,100.00
2023-01-09T22:21:59.927Z,100.00
2023-01-09T22:24:26.373Z,100.00
2023-01-09T22:26:52.772Z,100.00
2023-01-09T22:29:19.172Z,100.00
2023-01-09T22:31:45.734Z,100.00
2023-01-09T22:34:16.515Z,100.00
2023-01-09T22:36:43.781Z,100.00
2023-01-09T22:39:11.789Z,100.00
2023-01-09T22:41:38.132Z,100.00
2023-01-09T22:44:04.874Z,100.00
2023-01-09T22:46:32.131Z,100.00
2023-01-09T22:48:58.526Z,100.00
2023-01-09T22:51:24.936Z,100.00
2023-01-09T22:53:51.312Z,100.00
2023-01-09T22:56:19.344Z,100.00
2023-01-09T22:58:52.633Z,100.00
2023-01-09T23:01:19.128Z,100.00
2023-01-09T23:03:45.868Z,100.00
2023-01-09T23:06:14.020Z,100.00
2023-01-09T23:08:40.604Z,100.00
2023-01-09T23:11:09.579Z,100.00
2023-01-09T23:13:36.083Z,100.00
2023-01-09T23:16:02.682Z,100.00
2023-01-09T23:18:29.252Z,100.00
2023-01-09T23:21:05.379Z,100.00
2023-01-09T23:23:32.061Z,100.00
2023-01-09T23:26:00.249Z,100.00
2023-01-09T23:28:26.722Z,100.00
2023-01-09T23:30:53.204Z,100.00
2023-01-09T23:33:22.545Z,100.00
2023-01-09T23:35:49.042Z,100.00
2023-01-09T23:38:15.756Z,100.00
2023-01-09T23:40:42.313Z,100.00
2023-01-09T23:43:12.683Z,100.00
2023-01-09T23:45:43.102Z,100.00
2023-01-09T23:48:11.262Z,100.00
2023-01-09T23:50:37.642Z,100.00
2023-01-09T23:53:04.345Z,100.00
2023-01-09T23:55:31.825Z,100.00
2023-01-09T23:57:58.204Z,100.00
